Time;durP1;ratioP1;P1;durP2;ratioP2;P2;SDS_P1;SDS_P2;PMS_P1;PMS_P2;Temp;Humidity;BMP_temperature;BMP_pressure;BME280_temperature;BME280_humidity;BME280_pressure;Samples;Min_cycle;Max_cycle;Signal;HPM_P1;HPM_P2
2022/03/24 00:01:49;;;;;;;50.83;21.17;;;;;;;;;;5004470;28;20475;-74
2022/03/24 00:04:14;;;;;;;39.20;21.27;;;;;;;;;;5004535;28;20018;-73
2022/03/24 00:06:40;;;;;;;42.97;21.35;;;;;;;;;;5004043;28;20026;-74
2022/03/24 00:09:05;;;;;;;37.90;19.67;;;;;;;;;;5004418;28;20030;-74
2022/03/24 00:11:31;;;;;;;38.92;20.63;;;;;;;;;;5004137;28;20026;-74
2022/03/24 00:13:57;;;;;;;46.13;20.58;;;;;;;;;;5004140;28;20030;-73
2022/03/24 00:16:22;;;;;;;37.88;19.80;;;;;;;;;;5004200;28;20218;-74
2022/03/24 00:18:48;;;;;;;38.95;20.60;;;;;;;;;;5004364;28;20038;-74
2022/03/24 00:21:16;;;;;;;37.35;20.42;;;;;;;;;;5004017;28;20058;-74
2022/03/24 00:23:42;;;;;;;40.55;21.77;;;;;;;;;;5004236;28;20022;-74
2022/03/24 00:26:08;;;;;;;40.63;21.48;;;;;;;;;;5003997;28;20041;-74
2022/03/24 00:28:33;;;;;;;41.83;21.35;;;;;;;;;;5003771;28;20065;-74
2022/03/24 00:31:01;;;;;;;40.38;21.35;;;;;;;;;;5003723;28;20030;-75
2022/03/24 00:33:26;;;;;;;48.33;22.27;;;;;;;;;;5004059;28;20034;-73
2022/03/24 00:35:52;;;;;;;39.33;20.33;;;;;;;;;;5003778;28;20030;-73
2022/03/24 00:38:17;;;;;;;43.45;20.95;;;;;;;;;;5003600;28;20047;-73
2022/03/24 00:40:43;;;;;;;42.10;21.38;;;;;;;;;;5003824;28;20279;-74
2022/03/24 00:43:09;;;;;;;44.28;21.23;;;;;;;;;;5003622;28;20369;-75
2022/03/24 00:45:35;;;;;;;46.75;20.73;;;;;;;;;;5003639;28;20090;-74
2022/03/24 00:48:00;;;;;;;39.35;20.40;;;;;;;;;;5003333;28;20310;-73
2022/03/24 00:50:26;;;;;;;41.03;20.85;;;;;;;;;;4997194;28;20041;-74
2022/03/24 00:52:51;;;;;;;37.35;20.13;;;;;;;;;;4985044;28;20089;-74
2022/03/24 00:55:18;;;;;;;44.47;20.70;;;;;;;;;;4983937;28;20027;-75
2022/03/24 00:57:46;;;;;;;40.80;20.48;;;;;;;;;;4983199;28;20384;-73
2022/03/24 01:00:15;;;;;;;41.13;20.38;;;;;;;;;;4984070;28;20406;-74
2022/03/24 01:02:45;;;;;;;35.97;19.10;;;;;;;;;;4983708;28;20077;-74
2022/03/24 01:05:15;;;;;;;48.97;19.48;;;;;;;;;;4983771;28;20322;-73
2022/03/24 01:07:42;;;;;;;41.65;19.52;;;;;;;;;;4983936;28;20038;-75
2022/03/24 01:10:08;;;;;;;35.53;17.60;;;;;;;;;;4983843;28;20027;-73
2022/03/24 01:12:34;;;;;;;36.97;18.85;;;;;;;;;;4983499;28;20448;-74
2022/03/24 01:14:59;;;;;;;37.40;18.27;;;;;;;;;;4983616;28;20030;-74
2022/03/24 01:17:26;;;;;;;36.25;17.42;;;;;;;;;;4983528;28;20082;-74
2022/03/24 01:19:55;;;;;;;36.83;17.27;;;;;;;;;;4983401;28;20027;-74
2022/03/24 01:22:20;;;;;;;34.08;17.40;;;;;;;;;;4983617;28;20100;-74
2022/03/24 01:24:46;;;;;;;30.77;16.35;;;;;;;;;;4988650;28;20026;-74
2022/03/24 01:27:14;;;;;;;32.83;17.88;;;;;;;;;;5001480;28;20033;-74
2022/03/24 01:29:40;;;;;;;39.22;19.98;;;;;;;;;;5003059;28;20022;-74
2022/03/24 01:32:05;;;;;;;33.92;18.02;;;;;;;;;;5002705;28;20022;-74
2022/03/24 01:34:31;;;;;;;31.65;16.95;;;;;;;;;;5002347;28;20035;-74
2022/03/24 01:36:56;;;;;;;35.65;17.75;;;;;;;;;;5002391;28;20071;-73
2022/03/24 01:39:22;;;;;;;36.30;18.92;;;;;;;;;;5002582;28;20044;-73
2022/03/24 01:41:48;;;;;;;35.35;17.85;;;;;;;;;;5002638;28;20106;-74
2022/03/24 01:44:17;;;;;;;34.95;18.50;;;;;;;;;;5002561;28;20046;-74
2022/03/24 01:47:05;;;;;;;32.97;17.52;;;;;;;;;;5002449;28;20026;-74
2022/03/24 01:49:36;;;;;;;31.08;16.80;;;;;;;;;;5002259;28;20046;-74
2022/03/24 01:52:07;;;;;;;31.20;16.88;;;;;;;;;;5002276;28;20026;-73
2022/03/24 01:54:33;;;;;;;35.72;17.08;;;;;;;;;;5002442;28;20037;-74
2022/03/24 01:56:59;;;;;;;31.80;16.90;;;;;;;;;;5002331;28;20033;-73
2022/03/24 01:59:25;;;;;;;28.25;15.75;;;;;;;;;;5002372;28;20026;-74
2022/03/24 02:01:51;;;;;;;31.60;15.88;;;;;;;;;;5002236;28;20042;-73
2022/03/24 02:04:19;;;;;;;30.33;15.48;;;;;;;;;;5002070;28;20022;-73
2022/03/24 02:06:45;;;;;;;29.35;16.05;;;;;;;;;;5001831;28;20041;-74
2022/03/24 02:09:12;;;;;;;28.55;15.43;;;;;;;;;;5002108;28;20218;-73
2022/03/24 02:11:37;;;;;;;31.48;16.67;;;;;;;;;;5001804;28;20030;-73
2022/03/24 02:14:04;;;;;;;35.20;19.00;;;;;;;;;;5002046;28;20037;-72
2022/03/24 02:16:35;;;;;;;32.08;16.98;;;;;;;;;;5001619;28;20022;-73
2022/03/24 02:19:16;;;;;;;33.58;18.15;;;;;;;;;;5002006;28;20314;-73
2022/03/24 02:21:43;;;;;;;31.95;16.92;;;;;;;;;;5001949;28;20026;-73
2022/03/24 02:24:10;;;;;;;33.35;16.83;;;;;;;;;;5001953;28;20018;-72
2022/03/24 02:26:37;;;;;;;34.85;18.10;;;;;;;;;;5001758;28;20018;-73
2022/03/24 02:29:06;;;;;;;34.05;18.10;;;;;;;;;;5000676;28;20046;-74
2022/03/24 02:31:38;;;;;;;35.20;18.30;;;;;;;;;;4982050;28;20287;-73
2022/03/24 02:36:53;;;;;;;39.55;20.20;;;;;;;;;;4999841;28;20076;-73
2022/03/24 02:39:19;;;;;;;34.67;18.58;;;;;;;;;;5008971;28;20313;-73
2022/03/24 02:41:50;;;;;;;33.78;17.88;;;;;;;;;;4994101;28;20041;-73
2022/03/24 02:44:17;;;;;;;34.08;17.40;;;;;;;;;;4997600;28;20062;-73
2022/03/24 02:46:45;;;;;;;34.75;18.05;;;;;;;;;;4997766;28;20035;-73
2022/03/24 02:49:10;;;;;;;32.47;16.90;;;;;;;;;;4987473;28;20026;-74
2022/03/24 02:51:36;;;;;;;31.33;16.88;;;;;;;;;;5000934;28;20089;-73
2022/03/24 02:54:04;;;;;;;32.38;17.75;;;;;;;;;;4994167;28;20049;-74
2022/03/24 02:56:30;;;;;;;29.38;15.82;;;;;;;;;;5002686;28;20033;-74
2022/03/24 02:58:56;;;;;;;26.92;15.73;;;;;;;;;;4991990;28;20038;-73
2022/03/24 03:01:22;;;;;;;28.73;15.52;;;;;;;;;;5001415;28;20360;-73
2022/03/24 03:03:49;;;;;;;29.25;14.85;;;;;;;;;;5033011;28;20029;-73
2022/03/24 03:06:14;;;;;;;27.05;15.32;;;;;;;;;;5032211;28;20026;-72
2022/03/24 03:08:40;;;;;;;29.48;15.60;;;;;;;;;;5001482;28;20026;-72
2022/03/24 03:11:05;;;;;;;30.70;15.50;;;;;;;;;;5001198;28;20026;-72
2022/03/24 03:13:31;;;;;;;28.45;15.85;;;;;;;;;;5001490;28;20026;-73
2022/03/24 03:15:56;;;;;;;27.42;14.95;;;;;;;;;;4983588;28;20043;-72
2022/03/24 03:18:22;;;;;;;29.13;15.85;;;;;;;;;;4981761;28;20039;-73
2022/03/24 03:20:47;;;;;;;32.35;15.48;;;;;;;;;;4982517;28;20050;-73
2022/03/24 03:23:13;;;;;;;27.40;15.15;;;;;;;;;;4985372;28;20338;-73
2022/03/24 03:25:38;;;;;;;30.10;15.40;;;;;;;;;;4985585;28;20031;-73
2022/03/24 03:28:06;;;;;;;29.40;15.23;;;;;;;;;;4991366;28;20037;-73
2022/03/24 03:30:32;;;;;;;28.63;16.35;;;;;;;;;;5003910;28;20026;-72
2022/03/24 03:32:57;;;;;;;28.17;15.50;;;;;;;;;;5002373;28;20324;-74
2022/03/24 03:35:23;;;;;;;30.02;16.27;;;;;;;;;;5005336;28;20032;-72
2022/03/24 03:37:48;;;;;;;28.95;16.23;;;;;;;;;;5003074;28;20026;-72
2022/03/24 03:40:13;;;;;;;36.55;18.27;;;;;;;;;;5001028;28;20026;-73
2022/03/24 03:42:39;;;;;;;33.03;17.42;;;;;;;;;;5003490;28;20029;-72
2022/03/24 03:45:05;;;;;;;34.30;18.00;;;;;;;;;;5003673;28;20026;-72
2022/03/24 03:47:30;;;;;;;39.00;21.02;;;;;;;;;;5003553;28;20029;-73
2022/03/24 03:49:56;;;;;;;39.72;19.15;;;;;;;;;;4985654;28;20046;-72
2022/03/24 03:52:21;;;;;;;40.17;19.35;;;;;;;;;;4983762;28;20254;-72
2022/03/24 03:54:47;;;;;;;34.40;17.60;;;;;;;;;;4984141;28;20081;-72
2022/03/24 03:57:13;;;;;;;31.42;17.15;;;;;;;;;;4983831;28;20054;-72
2022/03/24 03:59:39;;;;;;;33.17;16.75;;;;;;;;;;4983999;28;20223;-72
2022/03/24 04:02:05;;;;;;;30.90;16.63;;;;;;;;;;4983548;28;20215;-72
2022/03/24 04:04:31;;;;;;;38.13;17.60;;;;;;;;;;4983034;28;20394;-72
2022/03/24 04:06:56;;;;;;;30.60;16.10;;;;;;;;;;4998818;28;20019;-72
2022/03/24 04:09:22;;;;;;;32.50;17.30;;;;;;;;;;4983534;28;20030;-72
2022/03/24 04:11:47;;;;;;;42.10;18.08;;;;;;;;;;4984435;28;20342;-72
2022/03/24 04:14:13;;;;;;;30.85;17.05;;;;;;;;;;4984845;28;20042;-72
2022/03/24 04:16:38;;;;;;;30.50;16.67;;;;;;;;;;4984784;28;20026;-75
2022/03/24 04:19:05;;;;;;;31.58;17.05;;;;;;;;;;4984134;28;20311;-72
2022/03/24 04:21:31;;;;;;;30.77;16.73;;;;;;;;;;4984533;28;20027;-76
2022/03/24 04:23:56;;;;;;;31.83;17.60;;;;;;;;;;4984658;28;20270;-78
2022/03/24 04:26:22;;;;;;;33.17;18.10;;;;;;;;;;4983878;28;20038;-72
2022/03/24 04:28:47;;;;;;;34.50;16.33;;;;;;;;;;4983369;28;20082;-72
2022/03/24 04:31:13;;;;;;;33.67;16.88;;;;;;;;;;4982878;28;20026;-72
2022/03/24 04:33:39;;;;;;;31.48;16.02;;;;;;;;;;4984813;28;20314;-72
2022/03/24 04:36:08;;;;;;;33.90;16.55;;;;;;;;;;4982527;28;20042;-72
2022/03/24 04:38:37;;;;;;;31.45;17.30;;;;;;;;;;4983075;28;20434;-73
2022/03/24 04:41:04;;;;;;;35.30;17.20;;;;;;;;;;4983082;28;20030;-73
2022/03/24 04:43:30;;;;;;;31.10;16.70;;;;;;;;;;4983646;28;20042;-73
2022/03/24 04:45:55;;;;;;;33.92;18.05;;;;;;;;;;4982668;28;20026;-73
2022/03/24 04:48:21;;;;;;;37.47;17.58;;;;;;;;;;4983257;28;20031;-73
2022/03/24 04:50:46;;;;;;;39.47;19.38;;;;;;;;;;4982119;28;20018;-73
2022/03/24 04:53:14;;;;;;;38.72;19.40;;;;;;;;;;4982693;28;20077;-77
2022/03/24 04:55:41;;;;;;;39.08;18.88;;;;;;;;;;4991185;28;20019;-78
2022/03/24 04:58:06;;;;;;;35.45;18.35;;;;;;;;;;4982795;28;20123;-78
2022/03/24 05:00:32;;;;;;;38.47;19.38;;;;;;;;;;4982716;28;20374;-78
2022/03/24 05:02:59;;;;;;;37.00;19.83;;;;;;;;;;4982482;28;20026;-77
2022/03/24 05:05:24;;;;;;;32.85;18.45;;;;;;;;;;4987421;28;20034;-74
2022/03/24 05:07:49;;;;;;;36.92;19.23;;;;;;;;;;4987816;28;20053;-78
2022/03/24 05:10:15;;;;;;;37.42;18.45;;;;;;;;;;4984481;28;20030;-77
2022/03/24 05:12:40;;;;;;;37.70;17.65;;;;;;;;;;4984611;28;20089;-74
2022/03/24 05:15:08;;;;;;;36.13;18.17;;;;;;;;;;4996221;28;20257;-73
2022/03/24 05:17:34;;;;;;;34.63;18.48;;;;;;;;;;5002392;28;20366;-71
2022/03/24 05:19:59;;;;;;;41.58;17.98;;;;;;;;;;5001911;28;20034;-74
2022/03/24 05:22:24;;;;;;;36.45;17.92;;;;;;;;;;5004551;28;20022;-73
2022/03/24 05:24:50;;;;;;;45.95;18.65;;;;;;;;;;5005685;28;20026;-72
2022/03/24 05:27:15;;;;;;;34.70;17.73;;;;;;;;;;5002300;28;20030;-71
2022/03/24 05:29:41;;;;;;;32.53;17.13;;;;;;;;;;5002174;28;20052;-71
2022/03/24 05:32:06;;;;;;;40.72;18.35;;;;;;;;;;5002071;28;20030;-71
2022/03/24 05:34:33;;;;;;;37.83;16.88;;;;;;;;;;5001047;28;20038;-71
2022/03/24 05:36:58;;;;;;;36.67;16.75;;;;;;;;;;5003159;28;20423;-72
2022/03/24 05:39:24;;;;;;;38.40;16.75;;;;;;;;;;5002929;28;20034;-72
2022/03/24 05:41:49;;;;;;;35.05;16.98;;;;;;;;;;5001843;28;20022;-71
2022/03/24 05:44:15;;;;;;;48.53;18.88;;;;;;;;;;5001632;28;20053;-71
2022/03/24 05:46:44;;;;;;;36.72;17.02;;;;;;;;;;5001636;28;20030;-70
2022/03/24 05:49:14;;;;;;;35.47;17.98;;;;;;;;;;4997985;28;20025;-71
2022/03/24 05:51:43;;;;;;;40.67;18.42;;;;;;;;;;5001751;28;20030;-70
2022/03/24 05:54:13;;;;;;;39.33;18.70;;;;;;;;;;5001668;28;20022;-72
2022/03/24 05:56:39;;;;;;;40.95;18.77;;;;;;;;;;5001872;28;20045;-71
2022/03/24 05:59:05;;;;;;;34.40;17.77;;;;;;;;;;5002207;28;20026;-71
2022/03/24 06:01:31;;;;;;;44.25;18.52;;;;;;;;;;5002054;28;20046;-70
2022/03/24 06:03:59;;;;;;;43.78;19.40;;;;;;;;;;5001497;28;20046;-70
2022/03/24 06:06:26;;;;;;;45.10;20.45;;;;;;;;;;5002095;28;20037;-71
2022/03/24 06:08:57;;;;;;;35.17;18.45;;;;;;;;;;5002134;28;20022;-71
2022/03/24 06:11:23;;;;;;;40.10;19.27;;;;;;;;;;5001698;28;20056;-76
2022/03/24 06:13:48;;;;;;;36.42;17.75;;;;;;;;;;5001913;28;20026;-73
2022/03/24 06:16:14;;;;;;;36.92;17.55;;;;;;;;;;5000961;28;20050;-74
2022/03/24 06:18:40;;;;;;;39.55;18.00;;;;;;;;;;5001905;28;20034;-72
2022/03/24 06:21:07;;;;;;;36.58;17.05;;;;;;;;;;5001518;28;20085;-71
2022/03/24 06:23:33;;;;;;;36.35;18.52;;;;;;;;;;5002030;28;20045;-73
2022/03/24 06:25:58;;;;;;;37.08;17.77;;;;;;;;;;5000681;28;20105;-75
2022/03/24 06:28:24;;;;;;;37.33;17.38;;;;;;;;;;5001898;28;20110;-71
2022/03/24 06:30:50;;;;;;;43.20;19.25;;;;;;;;;;5001358;28;20038;-73
2022/03/24 06:33:16;;;;;;;34.45;17.80;;;;;;;;;;5001663;28;20064;-72
2022/03/24 06:35:46;;;;;;;41.15;17.65;;;;;;;;;;5001705;28;20022;-71
2022/03/24 06:38:12;;;;;;;44.40;20.08;;;;;;;;;;5001648;28;20042;-73
2022/03/24 06:40:38;;;;;;;39.72;19.58;;;;;;;;;;5001523;28;20038;-70
2022/03/24 06:43:06;;;;;;;36.28;18.88;;;;;;;;;;5000462;28;20026;-70
2022/03/24 06:45:32;;;;;;;44.40;18.77;;;;;;;;;;5001219;28;20030;-72
2022/03/24 06:47:58;;;;;;;38.85;19.33;;;;;;;;;;5001106;28;20031;-76
2022/03/24 06:50:23;;;;;;;43.10;19.95;;;;;;;;;;5001085;28;20038;-70
2022/03/24 06:52:49;;;;;;;53.88;21.75;;;;;;;;;;5000109;28;20065;-73
2022/03/24 06:55:14;;;;;;;46.45;20.90;;;;;;;;;;5001977;28;20022;-70
2022/03/24 06:57:41;;;;;;;41.33;20.65;;;;;;;;;;5005225;28;20114;-70
2022/03/24 07:00:07;;;;;;;59.03;20.48;;;;;;;;;;5005250;28;20121;-71
2022/03/24 07:02:33;;;;;;;45.33;22.35;;;;;;;;;;5004579;28;20033;-72
2022/03/24 07:04:58;;;;;;;44.22;21.48;;;;;;;;;;5004876;28;20138;-73
2022/03/24 07:07:26;;;;;;;56.05;21.83;;;;;;;;;;5010565;28;20071;-70
2022/03/24 07:09:51;;;;;;;54.30;21.65;;;;;;;;;;5019619;28;20026;-71
2022/03/24 07:12:20;;;;;;;50.80;22.38;;;;;;;;;;5003901;28;20041;-69
2022/03/24 07:14:45;;;;;;;45.50;22.10;;;;;;;;;;4994104;28;20331;-74
2022/03/24 07:17:11;;;;;;;63.58;22.90;;;;;;;;;;4985083;28;20026;-73
2022/03/24 07:19:37;;;;;;;51.58;23.58;;;;;;;;;;4996926;28;20026;-72
2022/03/24 07:22:03;;;;;;;50.47;22.20;;;;;;;;;;5003786;28;20069;-73
2022/03/24 07:24:28;;;;;;;48.35;22.08;;;;;;;;;;5004217;28;20054;-73
2022/03/24 07:26:54;;;;;;;53.05;21.40;;;;;;;;;;5003547;28;20041;-74
2022/03/24 07:29:20;;;;;;;59.13;21.58;;;;;;;;;;5003356;28;20215;-72
2022/03/24 07:31:45;;;;;;;57.95;22.13;;;;;;;;;;4995894;28;20035;-74
2022/03/24 07:34:10;;;;;;;40.13;22.20;;;;;;;;;;4997630;28;20029;-73
2022/03/24 07:36:36;;;;;;;47.42;21.15;;;;;;;;;;5005875;28;20230;-74
2022/03/24 07:39:01;;;;;;;51.75;21.58;;;;;;;;;;5004640;28;20046;-73
2022/03/24 07:41:27;;;;;;;47.38;21.05;;;;;;;;;;5004456;28;20050;-73
2022/03/24 07:43:53;;;;;;;54.30;22.83;;;;;;;;;;5004209;28;20030;-72
2022/03/24 07:46:18;;;;;;;54.97;21.98;;;;;;;;;;4996651;28;20219;-72
2022/03/24 07:48:48;;;;;;;46.75;21.83;;;;;;;;;;4997463;28;20831;-72
2022/03/24 07:51:15;;;;;;;47.90;22.92;;;;;;;;;;4998784;28;20054;-73
2022/03/24 07:53:53;;;;;;;51.70;22.90;;;;;;;;;;5004043;28;20065;-73
2022/03/24 07:56:23;;;;;;;62.60;22.40;;;;;;;;;;5004104;28;20032;-74
2022/03/24 07:58:49;;;;;;;55.47;20.83;;;;;;;;;;5003222;28;20019;-75
2022/03/24 08:01:14;;;;;;;55.83;20.15;;;;;;;;;;5005522;28;20422;-73
2022/03/24 08:03:40;;;;;;;49.33;19.17;;;;;;;;;;5005666;28;20038;-73
2022/03/24 08:06:05;;;;;;;48.97;19.65;;;;;;;;;;5003673;28;20388;-73
2022/03/24 08:08:31;;;;;;;53.55;19.77;;;;;;;;;;5004271;28;20026;-73
2022/03/24 08:10:58;;;;;;;49.47;17.45;;;;;;;;;;5003995;28;20073;-72
2022/03/24 08:13:25;;;;;;;43.83;17.40;;;;;;;;;;5003595;28;20049;-73
2022/03/24 08:15:51;;;;;;;34.72;16.10;;;;;;;;;;5005259;28;20045;-73
2022/03/24 08:18:18;;;;;;;30.48;14.18;;;;;;;;;;5004639;28;20342;-73
2022/03/24 08:20:47;;;;;;;30.05;14.48;;;;;;;;;;5003934;28;20093;-73
2022/03/24 08:23:13;;;;;;;25.50;14.00;;;;;;;;;;5003957;28;20026;-74
2022/03/24 08:25:40;;;;;;;29.60;14.07;;;;;;;;;;5004163;28;20050;-74
2022/03/24 08:28:06;;;;;;;27.70;14.45;;;;;;;;;;5004061;28;20270;-72
2022/03/24 08:30:31;;;;;;;34.35;14.38;;;;;;;;;;5004052;28;20078;-72
2022/03/24 08:32:57;;;;;;;33.92;14.57;;;;;;;;;;5004400;28;20085;-76
2022/03/24 08:35:23;;;;;;;34.13;16.13;;;;;;;;;;5019312;28;20321;-74
2022/03/24 08:37:48;;;;;;;31.38;15.13;;;;;;;;;;5026131;28;20061;-75
2022/03/24 08:40:14;;;;;;;28.83;14.98;;;;;;;;;;5022263;28;20030;-75
2022/03/24 08:42:41;;;;;;;33.42;15.43;;;;;;;;;;5008111;28;20053;-80
2022/03/24 08:45:09;;;;;;;28.85;15.48;;;;;;;;;;5003679;28;20022;-74
2022/03/24 08:47:36;;;;;;;34.13;16.05;;;;;;;;;;5004666;28;20045;-77
2022/03/24 08:50:04;;;;;;;27.45;15.70;;;;;;;;;;5003790;28;20033;-79
2022/03/24 08:52:29;;;;;;;38.30;16.15;;;;;;;;;;5004194;28;20026;-75
2022/03/24 08:54:55;;;;;;;32.13;16.27;;;;;;;;;;5003002;28;20422;-75
2022/03/24 08:57:28;;;;;;;34.25;15.57;;;;;;;;;;5003391;28;20144;-75
2022/03/24 09:00:00;;;;;;;37.10;15.20;;;;;;;;;;5003565;28;20089;-76
2022/03/24 09:02:25;;;;;;;42.95;16.08;;;;;;;;;;5004250;28;20157;-76
2022/03/24 09:04:51;;;;;;;30.75;15.60;;;;;;;;;;5003269;28;20034;-75
2022/03/24 09:07:16;;;;;;;38.33;15.95;;;;;;;;;;5003139;28;20273;-75
2022/03/24 09:09:42;;;;;;;37.72;16.45;;;;;;;;;;5003172;28;20023;-75
2022/03/24 09:12:09;;;;;;;34.47;15.30;;;;;;;;;;5003000;28;20037;-76
2022/03/24 09:14:36;;;;;;;40.58;16.55;;;;;;;;;;5003026;28;20046;-75
2022/03/24 09:17:01;;;;;;;37.63;16.33;;;;;;;;;;5013495;28;20041;-77
2022/03/24 09:19:27;;;;;;;38.17;16.13;;;;;;;;;;5021492;28;20064;-75
2022/03/24 09:21:52;;;;;;;33.50;15.30;;;;;;;;;;5013000;28;20030;-77
2022/03/24 09:24:17;;;;;;;30.90;16.52;;;;;;;;;;5002695;28;20033;-76
2022/03/24 09:26:43;;;;;;;31.60;15.60;;;;;;;;;;5002731;28;20082;-76
2022/03/24 09:29:09;;;;;;;32.13;15.90;;;;;;;;;;5002829;28;20134;-75
2022/03/24 09:31:35;;;;;;;35.38;16.27;;;;;;;;;;5010014;28;20034;-75
2022/03/24 09:34:01;;;;;;;36.83;16.35;;;;;;;;;;5022244;28;20632;-75
2022/03/24 09:36:27;;;;;;;33.22;15.30;;;;;;;;;;5022394;28;20030;-75
2022/03/24 09:38:52;;;;;;;31.65;15.82;;;;;;;;;;5020597;28;20121;-74
2022/03/24 09:41:19;;;;;;;35.92;15.70;;;;;;;;;;5021916;28;20386;-74
2022/03/24 09:43:45;;;;;;;43.13;16.75;;;;;;;;;;5022510;28;20385;-75
2022/03/24 09:46:10;;;;;;;35.20;15.90;;;;;;;;;;5021977;28;20037;-76
2022/03/24 09:48:36;;;;;;;28.70;16.02;;;;;;;;;;5019496;28;20269;-75
2022/03/24 09:51:02;;;;;;;39.53;16.75;;;;;;;;;;5002285;28;20402;-75
2022/03/24 09:53:27;;;;;;;34.65;15.68;;;;;;;;;;5001226;28;20096;-74
2022/03/24 09:55:53;;;;;;;34.05;15.82;;;;;;;;;;5007356;28;20248;-74
2022/03/24 09:58:23;;;;;;;33.92;15.45;;;;;;;;;;5012442;28;20081;-74
2022/03/24 10:00:49;;;;;;;29.85;14.75;;;;;;;;;;5001704;28;20045;-74
2022/03/24 10:03:16;;;;;;;30.58;14.98;;;;;;;;;;5002596;28;20022;-74
2022/03/24 10:06:07;;;;;;;33.65;14.90;;;;;;;;;;5002170;28;20053;-74
2022/03/24 10:08:33;;;;;;;28.55;14.80;;;;;;;;;;5011291;28;20477;-74
2022/03/24 10:11:09;;;;;;;28.23;14.25;;;;;;;;;;5021272;28;20084;-77
2022/03/24 10:13:41;;;;;;;26.92;14.27;;;;;;;;;;5021425;28;20277;-76
2022/03/24 10:16:07;;;;;;;34.00;14.63;;;;;;;;;;5018209;28;20078;-76
2022/03/24 10:18:33;;;;;;;26.02;13.70;;;;;;;;;;5005526;28;20049;-75
2022/03/24 10:21:01;;;;;;;28.10;14.90;;;;;;;;;;5001885;28;20355;-75
2022/03/24 10:23:26;;;;;;;24.65;13.82;;;;;;;;;;5001883;28;20093;-77
2022/03/24 10:25:52;;;;;;;25.73;14.38;;;;;;;;;;5001764;28;20281;-76
2022/03/24 10:28:18;;;;;;;31.60;15.50;;;;;;;;;;5001804;28;20066;-81
2022/03/24 10:30:49;;;;;;;29.13;14.82;;;;;;;;;;5009241;28;20029;-77
2022/03/24 10:33:34;;;;;;;31.77;15.05;;;;;;;;;;5020175;28;20315;-76
2022/03/24 10:36:12;;;;;;;28.38;15.35;;;;;;;;;;5021192;28;20029;-76
2022/03/24 10:38:43;;;;;;;32.03;15.95;;;;;;;;;;5020944;28;20206;-77
2022/03/24 10:41:15;;;;;;;31.10;15.75;;;;;;;;;;5021249;28;20072;-77
2022/03/24 10:43:42;;;;;;;28.25;15.63;;;;;;;;;;5021133;28;20052;-76
2022/03/24 10:46:17;;;;;;;30.13;16.33;;;;;;;;;;5014830;28;20033;-77
2022/03/24 10:48:42;;;;;;;;;;;;;;;;;;5001648;28;20022;-76
2022/03/24 10:51:08;;;;;;;30.00;16.33;;;;;;;;;;5001531;28;19944;-78
2022/03/24 10:53:41;;;;;;;34.72;15.93;;;;;;;;;;5001350;28;20214;-75
2022/03/24 10:56:12;;;;;;;28.48;15.13;;;;;;;;;;5001432;28;20061;-75
2022/03/24 10:58:58;;;;;;;30.75;15.07;;;;;;;;;;5008701;28;20149;-74
2022/03/24 11:01:26;;;;;;;27.17;15.32;;;;;;;;;;5002181;28;20133;-75
2022/03/24 11:03:52;;;;;;;29.45;15.32;;;;;;;;;;5001179;28;20298;-75
2022/03/24 11:06:19;;;;;;;27.73;15.30;;;;;;;;;;5001354;28;20034;-75
2022/03/24 11:08:58;;;;;;;33.05;15.65;;;;;;;;;;5001490;28;20050;-76
2022/03/24 11:11:23;;;;;;;26.80;15.27;;;;;;;;;;5001220;28;20310;-83
2022/03/24 11:13:53;;;;;;;26.15;14.88;;;;;;;;;;5001350;28;20097;-85
2022/03/24 11:16:22;;;;;;;31.98;15.27;;;;;;;;;;5000296;28;20023;-85
2022/03/24 11:18:49;;;;;;;35.97;17.33;;;;;;;;;;5000706;28;20046;-84
2022/03/24 11:21:20;;;;;;;27.00;14.88;;;;;;;;;;5001472;28;20093;-82
2022/03/24 11:23:46;;;;;;;26.73;15.15;;;;;;;;;;5001781;28;20096;-84
2022/03/24 11:26:12;;;;;;;27.85;14.68;;;;;;;;;;5001575;28;20085;-81
2022/03/24 11:28:39;;;;;;;26.77;14.18;;;;;;;;;;5003425;28;20026;-83
2022/03/24 11:31:13;;;;;;;26.98;14.82;;;;;;;;;;5004744;28;20085;-83
2022/03/24 11:33:51;;;;;;;26.20;15.30;;;;;;;;;;5007202;28;20030;-78
2022/03/24 11:36:19;;;;;;;26.70;15.02;;;;;;;;;;5005355;28;20222;-82
2022/03/24 11:38:53;;;;;;;29.55;15.85;;;;;;;;;;5002824;28;20169;-81
2022/03/24 11:41:19;;;;;;;28.27;15.48;;;;;;;;;;5001623;28;20269;-82
2022/03/24 11:43:49;;;;;;;25.33;15.45;;;;;;;;;;5004623;28;20058;-78
2022/03/24 11:46:31;;;;;;;27.58;15.10;;;;;;;;;;5005034;28;20022;-82
2022/03/24 11:49:19;;;;;;;29.55;15.55;;;;;;;;;;5003698;28;20038;-83
2022/03/24 11:51:58;;;;;;;30.52;15.82;;;;;;;;;;5004565;28;20319;-83
2022/03/24 11:54:36;;;;;;;25.38;13.95;;;;;;;;;;4985238;28;20034;-82
2022/03/24 11:57:26;;;;;;;27.60;14.20;;;;;;;;;;4982562;28;20093;-80
2022/03/24 12:00:13;;;;;;;22.83;12.63;;;;;;;;;;4984888;28;20027;-79
2022/03/24 12:02:40;;;;;;;22.67;13.10;;;;;;;;;;4983701;28;20050;-80
2022/03/24 12:05:06;;;;;;;23.88;13.77;;;;;;;;;;4983645;28;20247;-83
2022/03/24 12:07:32;;;;;;;27.67;13.30;;;;;;;;;;4984713;28;20373;-73
2022/03/24 12:10:00;;;;;;;23.73;12.75;;;;;;;;;;4984462;28;20254;-73
2022/03/24 12:12:27;;;;;;;21.85;11.68;;;;;;;;;;4987955;28;20214;-75
2022/03/24 12:14:54;;;;;;;23.15;11.80;;;;;;;;;;5004125;28;20026;-75
2022/03/24 12:17:22;;;;;;;23.00;12.85;;;;;;;;;;5004265;28;20130;-75
2022/03/24 12:19:58;;;;;;;24.00;12.30;;;;;;;;;;5004184;28;20100;-74
2022/03/24 12:22:30;;;;;;;20.88;10.95;;;;;;;;;;5003508;28;20030;-73
2022/03/24 12:24:58;;;;;;;24.23;13.05;;;;;;;;;;5004158;28;20026;-75
2022/03/24 12:27:24;;;;;;;25.35;13.02;;;;;;;;;;5003285;28;20385;-77
2022/03/24 12:30:09;;;;;;;24.42;13.15;;;;;;;;;;5003585;28;20042;-75
2022/03/24 12:32:34;;;;;;;24.08;12.77;;;;;;;;;;5002507;28;20034;-73
2022/03/24 12:35:00;;;;;;;23.50;12.50;;;;;;;;;;5003169;28;20049;-74
2022/03/24 12:37:31;;;;;;;20.98;11.98;;;;;;;;;;5003538;28;20041;-73
2022/03/24 12:40:06;;;;;;;21.90;12.18;;;;;;;;;;5001846;28;20030;-73
2022/03/24 12:42:50;;;;;;;25.20;12.63;;;;;;;;;;5003121;28;20049;-73
2022/03/24 12:45:28;;;;;;;19.40;11.20;;;;;;;;;;5002594;28;20036;-73
2022/03/24 12:47:59;;;;;;;19.58;11.23;;;;;;;;;;5003451;28;20031;-73
2022/03/24 12:50:24;;;;;;;24.15;11.93;;;;;;;;;;5003570;28;20030;-73
2022/03/24 12:53:04;;;;;;;20.70;11.25;;;;;;;;;;5002465;28;20037;-73
2022/03/24 12:55:35;;;;;;;19.92;10.85;;;;;;;;;;5003481;28;20027;-73
2022/03/24 12:58:19;;;;;;;20.58;11.15;;;;;;;;;;5004034;28;20030;-73
2022/03/24 13:00:47;;;;;;;17.05;9.75;;;;;;;;;;5001730;28;20069;-75
2022/03/24 13:03:14;;;;;;;18.65;10.30;;;;;;;;;;5001977;28;20033;-73
2022/03/24 13:05:44;;;;;;;30.75;10.77;;;;;;;;;;5003194;28;20026;-72
2022/03/24 13:08:13;;;;;;;23.98;10.60;;;;;;;;;;5003200;28;20097;-72
2022/03/24 13:10:50;;;;;;;17.67;10.48;;;;;;;;;;5003026;28;20029;-73
2022/03/24 13:13:17;;;;;;;21.92;10.93;;;;;;;;;;5003018;28;20033;-73
2022/03/24 13:15:45;;;;;;;16.05;9.82;;;;;;;;;;5003005;28;20047;-73
2022/03/24 13:18:14;;;;;;;21.65;10.98;;;;;;;;;;5003268;28;20290;-73
2022/03/24 13:20:48;;;;;;;18.75;10.40;;;;;;;;;;5002549;28;20218;-74
2022/03/24 13:23:15;;;;;;;19.73;10.50;;;;;;;;;;5003045;28;20022;-74
2022/03/24 13:25:44;;;;;;;21.08;11.98;;;;;;;;;;5002764;28;20032;-74
2022/03/24 13:28:10;;;;;;;20.00;10.98;;;;;;;;;;5001665;28;20037;-73
2022/03/24 13:30:40;;;;;;;21.25;11.05;;;;;;;;;;5002719;28;20022;-73
2022/03/24 13:33:08;;;;;;;20.02;10.52;;;;;;;;;;5002472;28;20079;-73
2022/03/24 13:35:37;;;;;;;18.85;10.90;;;;;;;;;;5002353;28;20046;-72
2022/03/24 13:38:06;;;;;;;19.85;10.88;;;;;;;;;;4996816;28;20042;-74
2022/03/24 13:40:37;;;;;;;23.63;12.00;;;;;;;;;;5004807;28;20100;-74
2022/03/24 13:43:04;;;;;;;20.08;11.68;;;;;;;;;;5014014;28;20026;-77
2022/03/24 13:45:31;;;;;;;18.58;10.23;;;;;;;;;;5010841;28;20030;-76
2022/03/24 13:48:00;;;;;;;17.52;10.35;;;;;;;;;;5001354;28;20087;-74
2022/03/24 13:50:31;;;;;;;17.98;10.15;;;;;;;;;;5002067;28;20222;-74
2022/03/24 13:52:58;;;;;;;22.70;11.07;;;;;;;;;;5002602;28;20097;-74
2022/03/24 13:55:29;;;;;;;23.50;12.32;;;;;;;;;;5002365;28;20089;-73
2022/03/24 13:57:56;;;;;;;22.10;11.73;;;;;;;;;;5013596;28;20033;-72
2022/03/24 14:00:32;;;;;;;23.92;11.88;;;;;;;;;;5021677;28;20233;-73
2022/03/24 14:03:08;;;;;;;18.80;10.57;;;;;;;;;;5020163;28;20314;-73
2022/03/24 14:05:57;;;;;;;19.38;9.85;;;;;;;;;;5009819;28;20057;-73
2022/03/24 14:08:48;;;;;;;20.60;10.50;;;;;;;;;;5005263;28;20090;-73
2022/03/24 14:11:21;;;;;;;19.42;10.48;;;;;;;;;;5001832;28;20333;-73
2022/03/24 14:13:54;;;;;;;19.90;9.65;;;;;;;;;;5002061;28;20038;-72
2022/03/24 14:16:28;;;;;;;20.92;10.80;;;;;;;;;;5000863;28;20030;-73
2022/03/24 14:19:03;;;;;;;20.48;10.93;;;;;;;;;;5001890;28;20199;-72
2022/03/24 14:21:46;;;;;;;19.95;10.65;;;;;;;;;;5001482;28;20049;-72
2022/03/24 14:24:45;;;;;;;20.48;10.77;;;;;;;;;;5000400;28;20033;-73
2022/03/24 14:27:21;;;;;;;18.38;10.75;;;;;;;;;;4970475;28;20142;-72